Terminal Aerodrome Forecast
Issued by NWS

Home | Current Version | Previous Version | Graphics & Text | Print | Product List | Glossary On
Versions: 1 2 3 4 5 6 7 8 9 10 11 12 13 14 15 16
797
FTUS43 KFGF 301727
TAFBJI
TAF
KBJI 301727Z 3018/0118 35007KT P6SM OVC007
      TEMPO 3018/3021 5SM -SN
     FM010800 34008KT 4SM -FZDZ OVC008
     FM011400 33008KT P6SM OVC008
     FM011700 33009KT P6SM BKN010=

USA.gov is the U.S. government's official web portal to all federal, state and local government web resources and services.